Time;durP1;ratioP1;P1;durP2;ratioP2;P2;SDS_P1;SDS_P2;PMS_P1;PMS_P2;Temp;Humidity;BMP_temperature;BMP_pressure;BME280_temperature;BME280_humidity;BME280_pressure;Samples;Min_cycle;Max_cycle;Signal;HPM_P1;HPM_P2
2023/07/21 00:01:06;;;;;;;5.10;2.60;;;;;;;;;;7371020;19;20002;-70
2023/07/21 00:03:35;;;;;;;7.40;2.67;;;;;;;;;;7371719;19;20005;-69
2023/07/21 00:06:02;;;;;;;5.28;2.78;;;;;;;;;;7373462;19;20015;-70
2023/07/21 00:08:29;;;;;;;5.28;2.80;;;;;;;;;;7372004;19;20078;-70
2023/07/21 00:10:56;;;;;;;4.30;2.60;;;;;;;;;;7378017;19;19998;-69
2023/07/21 00:13:21;;;;;;;4.28;2.80;;;;;;;;;;7390496;19;20435;-69
2023/07/21 00:15:49;;;;;;;6.78;2.78;;;;;;;;;;7367264;19;20082;-70
2023/07/21 00:18:14;;;;;;;4.90;2.63;;;;;;;;;;7369419;19;20090;-70
2023/07/21 00:20:39;;;;;;;7.70;2.75;;;;;;;;;;7368121;19;20033;-70
2023/07/21 00:23:05;;;;;;;4.15;2.63;;;;;;;;;;7376350;19;20026;-70
2023/07/21 00:25:30;;;;;;;4.28;2.50;;;;;;;;;;7397744;19;20002;-70
2023/07/21 00:27:55;;;;;;;5.90;2.83;;;;;;;;;;7368568;19;20036;-69
2023/07/21 00:30:22;;;;;;;6.70;2.70;;;;;;;;;;7367283;19;20472;-69
2023/07/21 00:32:47;;;;;;;5.90;2.70;;;;;;;;;;7367074;19;20011;-69
2023/07/21 00:35:13;;;;;;;4.75;2.50;;;;;;;;;;7366636;19;20040;-69
2023/07/21 00:37:39;;;;;;;12.90;2.85;;;;;;;;;;7386480;19;20022;-69
2023/07/21 00:40:09;;;;;;;5.75;2.60;;;;;;;;;;7366579;19;20728;-70
2023/07/21 00:42:35;;;;;;;5.20;2.90;;;;;;;;;;7365797;19;20544;-70
2023/07/21 00:45:01;;;;;;;5.45;2.72;;;;;;;;;;7365910;19;20041;-70
2023/07/21 00:47:28;;;;;;;6.18;2.78;;;;;;;;;;7365530;19;20014;-70
2023/07/21 00:49:54;;;;;;;5.32;2.90;;;;;;;;;;7375147;19;20010;-70
2023/07/21 00:52:19;;;;;;;4.10;2.50;;;;;;;;;;7383440;19;20061;-71
2023/07/21 00:54:45;;;;;;;4.55;2.58;;;;;;;;;;7365643;19;20007;-70
2023/07/21 00:57:11;;;;;;;4.38;2.67;;;;;;;;;;7363419;19;20544;-69
2023/07/21 00:59:37;;;;;;;4.93;2.70;;;;;;;;;;7365392;19;20087;-70
2023/07/21 01:02:03;;;;;;;7.88;2.90;;;;;;;;;;7363450;19;20006;-69
2023/07/21 01:04:30;;;;;;;6.32;2.90;;;;;;;;;;7385194;19;20094;-70
2023/07/21 01:06:57;;;;;;;5.65;2.72;;;;;;;;;;7362107;19;20419;-69
2023/07/21 01:09:23;;;;;;;8.30;3.17;;;;;;;;;;7362467;19;20027;-70
2023/07/21 01:11:49;;;;;;;7.47;3.20;;;;;;;;;;7361474;19;20474;-70
2023/07/21 01:14:14;;;;;;;5.63;3.45;;;;;;;;;;7363847;19;20014;-69
2023/07/21 01:16:43;;;;;;;6.68;3.67;;;;;;;;;;7384430;19;20014;-70
2023/07/21 01:19:13;;;;;;;8.07;3.67;;;;;;;;;;7363145;19;20016;-70
2023/07/21 01:21:49;;;;;;;9.38;3.88;;;;;;;;;;7362920;19;20074;-69
2023/07/21 01:24:49;;;;;;;7.32;3.38;;;;;;;;;;7364717;19;20422;-69
2023/07/21 01:27:21;;;;;;;5.72;3.42;;;;;;;;;;7364122;19;20011;-69
2023/07/21 01:29:47;;;;;;;7.90;3.58;;;;;;;;;;7366455;19;20010;-69
2023/07/21 01:32:17;;;;;;;6.88;4.00;;;;;;;;;;7365451;19;20016;-69
2023/07/21 01:34:42;;;;;;;7.35;3.53;;;;;;;;;;7387290;19;20002;-69
2023/07/21 01:37:08;;;;;;;6.55;4.10;;;;;;;;;;7365944;19;20007;-70
2023/07/21 01:39:38;;;;;;;6.93;3.90;;;;;;;;;;7366108;19;20014;-70
2023/07/21 01:42:05;;;;;;;6.22;3.90;;;;;;;;;;7365139;19;20015;-70
2023/07/21 01:44:30;;;;;;;6.88;4.13;;;;;;;;;;7360932;19;20554;-70
2023/07/21 01:46:56;;;;;;;6.50;4.03;;;;;;;;;;7363644;19;20014;-70
2023/07/21 01:49:21;;;;;;;6.50;4.18;;;;;;;;;;7385274;19;20006;-70
2023/07/21 01:51:48;;;;;;;7.78;4.40;;;;;;;;;;7372231;19;20034;-69
2023/07/21 01:54:42;;;;;;;9.57;4.28;;;;;;;;;;7367269;19;20443;-69
2023/07/21 01:57:11;;;;;;;13.88;4.50;;;;;;;;;;7362951;19;20082;-69
2023/07/21 01:59:39;;;;;;;7.28;3.83;;;;;;;;;;7365177;19;20014;-70
2023/07/21 02:02:04;;;;;;;7.57;3.88;;;;;;;;;;7364452;19;20357;-69
2023/07/21 02:04:30;;;;;;;8.60;3.78;;;;;;;;;;7387190;19;20023;-69
2023/07/21 02:06:55;;;;;;;5.82;3.80;;;;;;;;;;7364332;19;20015;-69
2023/07/21 02:09:21;;;;;;;8.00;4.07;;;;;;;;;;7363667;19;20045;-70
2023/07/21 02:11:48;;;;;;;8.23;4.10;;;;;;;;;;7364567;19;20404;-69
2023/07/21 02:14:14;;;;;;;7.85;3.70;;;;;;;;;;7365601;19;20024;-70
2023/07/21 02:16:39;;;;;;;8.32;4.25;;;;;;;;;;7386716;19;20015;-70
2023/07/21 02:19:07;;;;;;;7.13;4.18;;;;;;;;;;7363338;19;20500;-70
2023/07/21 02:21:33;;;;;;;8.70;4.10;;;;;;;;;;7364701;19;20047;-70
2023/07/21 02:23:59;;;;;;;7.63;4.20;;;;;;;;;;7366270;19;20007;-70
2023/07/21 02:26:24;;;;;;;7.97;4.15;;;;;;;;;;7364667;19;20971;-70
2023/07/21 02:28:49;;;;;;;6.18;3.90;;;;;;;;;;7385423;19;20567;-70
2023/07/21 02:31:15;;;;;;;8.57;4.80;;;;;;;;;;7364060;19;20017;-70
2023/07/21 02:33:40;;;;;;;6.15;4.00;;;;;;;;;;7362918;19;20594;-70
2023/07/21 02:36:06;;;;;;;7.07;4.13;;;;;;;;;;7362750;19;20002;-70
2023/07/21 02:38:31;;;;;;;5.93;3.80;;;;;;;;;;7364173;19;20030;-70
2023/07/21 02:41:03;;;;;;;5.70;4.10;;;;;;;;;;7361827;19;20014;-70
2023/07/21 02:43:28;;;;;;;6.68;4.13;;;;;;;;;;7384254;19;20062;-70
2023/07/21 02:45:54;;;;;;;7.70;3.78;;;;;;;;;;7363729;19;20484;-70
2023/07/21 02:48:21;;;;;;;7.05;3.95;;;;;;;;;;7363665;19;20407;-70
2023/07/21 02:50:52;;;;;;;7.22;3.97;;;;;;;;;;7359046;19;20522;-70
2023/07/21 02:53:18;;;;;;;8.00;3.67;;;;;;;;;;7364656;19;20013;-70
2023/07/21 02:55:44;;;;;;;6.50;3.55;;;;;;;;;;7383478;19;20233;-70
2023/07/21 02:58:11;;;;;;;8.48;3.72;;;;;;;;;;7358820;19;20102;-70
2023/07/21 03:00:37;;;;;;;7.90;3.97;;;;;;;;;;7366104;19;20011;-70
2023/07/21 03:03:03;;;;;;;5.78;3.58;;;;;;;;;;7368220;19;20491;-70
2023/07/21 03:05:29;;;;;;;8.00;3.78;;;;;;;;;;7371588;19;20074;-70
2023/07/21 03:07:56;;;;;;;6.43;3.90;;;;;;;;;;7368748;19;20118;-70
2023/07/21 03:10:21;;;;;;;6.38;3.67;;;;;;;;;;7391628;19;20071;-70
2023/07/21 03:12:46;;;;;;;6.32;3.70;;;;;;;;;;7370214;19;20023;-70
2023/07/21 03:15:12;;;;;;;5.40;3.58;;;;;;;;;;7370113;19;20014;-70
2023/07/21 03:17:37;;;;;;;6.28;3.90;;;;;;;;;;7369246;19;20031;-70
2023/07/21 03:20:10;;;;;;;5.97;3.80;;;;;;;;;;7370924;19;20039;-70
2023/07/21 03:22:36;;;;;;;8.10;3.95;;;;;;;;;;7392101;19;20015;-70
2023/07/21 03:25:01;;;;;;;5.70;3.55;;;;;;;;;;7369891;19;20014;-70
2023/07/21 03:27:26;;;;;;;8.30;3.97;;;;;;;;;;7368335;19;20040;-70
2023/07/21 03:29:52;;;;;;;6.25;4.05;;;;;;;;;;7369768;19;20018;-70
2023/07/21 03:32:17;;;;;;;5.50;3.42;;;;;;;;;;7369721;19;20139;-70
2023/07/21 03:34:43;;;;;;;9.75;3.58;;;;;;;;;;7391509;19;20011;-70
2023/07/21 03:37:08;;;;;;;6.95;4.03;;;;;;;;;;7369846;19;20006;-70
2023/07/21 03:39:33;;;;;;;6.05;3.78;;;;;;;;;;7368037;19;20015;-70
2023/07/21 03:41:59;;;;;;;7.40;4.07;;;;;;;;;;7369078;19;20039;-70
2023/07/21 03:44:24;;;;;;;7.57;4.20;;;;;;;;;;7369235;19;20043;-70
2023/07/21 03:46:49;;;;;;;7.07;3.90;;;;;;;;;;7391049;19;20010;-70
2023/07/21 03:49:14;;;;;;;6.07;4.18;;;;;;;;;;7367919;19;20554;-70
2023/07/21 03:51:40;;;;;;;7.35;4.30;;;;;;;;;;7367418;19;20012;-70
2023/07/21 03:54:05;;;;;;;7.80;4.30;;;;;;;;;;7370293;19;20085;-70
2023/07/21 03:56:31;;;;;;;6.57;3.65;;;;;;;;;;7363202;19;20019;-70
2023/07/21 03:58:57;;;;;;;5.70;3.90;;;;;;;;;;7366753;19;20022;-70
2023/07/21 04:01:22;;;;;;;6.50;4.15;;;;;;;;;;7386433;19;20070;-70
2023/07/21 04:03:48;;;;;;;8.27;4.30;;;;;;;;;;7368482;19;20067;-70
2023/07/21 04:06:14;;;;;;;7.88;4.03;;;;;;;;;;7368852;19;20022;-70
2023/07/21 04:08:41;;;;;;;6.25;4.13;;;;;;;;;;7366943;19;20054;-70
2023/07/21 04:11:06;;;;;;;7.07;3.80;;;;;;;;;;7364529;19;20010;-70
2023/07/21 04:13:32;;;;;;;7.95;4.20;;;;;;;;;;7387058;19;20362;-70
2023/07/21 04:16:01;;;;;;;7.43;4.25;;;;;;;;;;7359423;19;20021;-70
2023/07/21 04:18:26;;;;;;;7.38;4.07;;;;;;;;;;7366913;19;19998;-70
2023/07/21 04:20:51;;;;;;;8.05;4.50;;;;;;;;;;7367065;19;20600;-70
2023/07/21 04:23:18;;;;;;;7.65;4.50;;;;;;;;;;7369566;19;20018;-69
2023/07/21 04:25:44;;;;;;;8.48;4.32;;;;;;;;;;7389688;19;20082;-70
2023/07/21 04:28:10;;;;;;;6.55;4.40;;;;;;;;;;7365719;19;20071;-70
2023/07/21 04:30:35;;;;;;;6.50;4.35;;;;;;;;;;7366740;19;20443;-70
2023/07/21 04:33:00;;;;;;;7.13;4.10;;;;;;;;;;7366356;19;20070;-70
2023/07/21 04:35:26;;;;;;;7.07;4.10;;;;;;;;;;7366516;19;20381;-69
2023/07/21 04:37:51;;;;;;;7.30;4.10;;;;;;;;;;7386384;19;20003;-70
2023/07/21 04:40:20;;;;;;;6.85;4.20;;;;;;;;;;7364230;19;20691;-69
2023/07/21 04:42:45;;;;;;;7.07;4.20;;;;;;;;;;7367041;19;20021;-69
2023/07/21 04:45:13;;;;;;;6.75;3.90;;;;;;;;;;7365974;19;20011;-69
2023/07/21 04:47:40;;;;;;;6.93;4.38;;;;;;;;;;7367285;19;20003;-70
2023/07/21 04:50:06;;;;;;;6.75;4.43;;;;;;;;;;7367019;19;20022;-68
2023/07/21 04:52:31;;;;;;;6.05;4.18;;;;;;;;;;7387959;19;20015;-69
2023/07/21 04:54:57;;;;;;;6.25;4.38;;;;;;;;;;7368215;19;20035;-69
2023/07/21 04:57:22;;;;;;;5.97;4.18;;;;;;;;;;7368703;19;20010;-69
2023/07/21 04:59:47;;;;;;;8.48;4.32;;;;;;;;;;7368896;19;20055;-69
2023/07/21 05:02:12;;;;;;;9.90;4.50;;;;;;;;;;7365681;19;20902;-69
2023/07/21 05:04:38;;;;;;;7.30;4.40;;;;;;;;;;7389434;19;19999;-69
2023/07/21 05:07:04;;;;;;;7.65;4.20;;;;;;;;;;7365090;19;20010;-69
2023/07/21 05:09:30;;;;;;;9.55;4.28;;;;;;;;;;7365680;19;20014;-69
2023/07/21 05:11:55;;;;;;;7.15;4.10;;;;;;;;;;7365438;19;20028;-69
2023/07/21 05:14:22;;;;;;;8.88;4.57;;;;;;;;;;7367447;19;20074;-69
2023/07/21 05:16:47;;;;;;;8.68;4.28;;;;;;;;;;7389801;19;20730;-69
2023/07/21 05:19:13;;;;;;;15.02;4.45;;;;;;;;;;7367672;19;20010;-69
2023/07/21 05:21:38;;;;;;;8.23;4.13;;;;;;;;;;7367062;19;20019;-69
2023/07/21 05:24:03;;;;;;;9.77;4.30;;;;;;;;;;7369099;19;20025;-69
2023/07/21 05:26:30;;;;;;;9.05;4.20;;;;;;;;;;7368996;19;20487;-69
2023/07/21 05:28:57;;;;;;;7.10;3.97;;;;;;;;;;7366417;19;20010;-69
2023/07/21 05:31:22;;;;;;;6.43;3.50;;;;;;;;;;7387512;19;20040;-69
2023/07/21 05:33:49;;;;;;;9.32;4.00;;;;;;;;;;7351892;19;20011;-70
2023/07/21 05:36:15;;;;;;;6.35;3.78;;;;;;;;;;7364957;19;20011;-70
2023/07/21 05:38:40;;;;;;;6.63;3.70;;;;;;;;;;7360974;19;20006;-69
2023/07/21 05:41:05;;;;;;;9.90;4.00;;;;;;;;;;7360174;19;20003;-70
2023/07/21 05:43:31;;;;;;;10.63;4.07;;;;;;;;;;7386452;19;20032;-69
2023/07/21 05:45:57;;;;;;;9.13;4.35;;;;;;;;;;7364039;19;20006;-69
2023/07/21 05:48:24;;;;;;;6.32;3.88;;;;;;;;;;7365815;19;20443;-69
2023/07/21 05:50:51;;;;;;;11.32;4.13;;;;;;;;;;7354804;19;20153;-70
2023/07/21 05:53:16;;;;;;;9.25;3.95;;;;;;;;;;7367392;19;20007;-70
2023/07/21 05:55:42;;;;;;;12.38;4.07;;;;;;;;;;7388580;19;20374;-70
2023/07/21 05:58:08;;;;;;;10.00;3.90;;;;;;;;;;7364950;19;20664;-70
2023/07/21 06:00:36;;;;;;;12.23;4.03;;;;;;;;;;7364066;19;20085;-70
2023/07/21 06:03:05;;;;;;;9.27;3.67;;;;;;;;;;7363381;19;20010;-70
2023/07/21 06:05:32;;;;;;;6.60;3.80;;;;;;;;;;7364263;19;20015;-70
2023/07/21 06:07:57;;;;;;;7.05;3.88;;;;;;;;;;7363709;19;20423;-69
2023/07/21 06:10:23;;;;;;;9.68;3.70;;;;;;;;;;7384402;19;20003;-70
2023/07/21 06:12:48;;;;;;;8.90;3.88;;;;;;;;;;7365402;19;20018;-70
2023/07/21 06:15:14;;;;;;;10.35;3.75;;;;;;;;;;7363479;19;20013;-70
2023/07/21 06:17:39;;;;;;;6.55;3.60;;;;;;;;;;7365127;19;20010;-70
2023/07/21 06:20:06;;;;;;;10.25;3.67;;;;;;;;;;7366168;19;20023;-70
2023/07/21 06:22:31;;;;;;;6.03;3.10;;;;;;;;;;7387844;19;20078;-70
2023/07/21 06:24:58;;;;;;;5.88;3.38;;;;;;;;;;7365774;19;20043;-70
2023/07/21 06:27:23;;;;;;;6.38;3.28;;;;;;;;;;7364038;19;20014;-70
2023/07/21 06:29:48;;;;;;;6.22;3.00;;;;;;;;;;7366076;19;20116;-70
2023/07/21 06:32:14;;;;;;;5.30;3.05;;;;;;;;;;7363841;19;20158;-70
2023/07/21 06:34:39;;;;;;;8.27;3.10;;;;;;;;;;7385246;19;20688;-70
2023/07/21 06:37:04;;;;;;;6.20;3.42;;;;;;;;;;7363767;19;20014;-70
2023/07/21 06:39:30;;;;;;;7.90;3.40;;;;;;;;;;7370121;19;20041;-70
2023/07/21 06:41:55;;;;;;;8.55;3.80;;;;;;;;;;7370568;19;20511;-70
2023/07/21 06:44:21;;;;;;;6.28;2.95;;;;;;;;;;7373510;19;20007;-70
2023/07/21 06:46:51;;;;;;;7.47;3.33;;;;;;;;;;7393291;19;20014;-70
2023/07/21 06:49:16;;;;;;;8.75;4.03;;;;;;;;;;7367691;19;20043;-70
2023/07/21 06:51:42;;;;;;;5.95;3.42;;;;;;;;;;7371931;19;20014;-70
2023/07/21 06:54:08;;;;;;;6.88;3.35;;;;;;;;;;7370761;19;20051;-70
2023/07/21 06:56:34;;;;;;;6.40;3.40;;;;;;;;;;7369687;19;20512;-69
2023/07/21 06:59:00;;;;;;;4.93;2.95;;;;;;;;;;7372837;19;20038;-69
2023/07/21 07:01:25;;;;;;;5.70;3.00;;;;;;;;;;7393041;19;20530;-69
2023/07/21 07:03:50;;;;;;;11.48;3.85;;;;;;;;;;7371429;19;20694;-69
2023/07/21 07:06:16;;;;;;;6.28;3.33;;;;;;;;;;7370826;19;20010;-69
2023/07/21 07:08:42;;;;;;;6.00;3.50;;;;;;;;;;7370779;19;20035;-69
2023/07/21 07:11:08;;;;;;;9.32;3.42;;;;;;;;;;7370598;19;20535;-70
2023/07/21 07:13:33;;;;;;;6.60;3.95;;;;;;;;;;7394108;19;20344;-70
2023/07/21 07:15:58;;;;;;;7.28;4.00;;;;;;;;;;7371885;19;20006;-70
2023/07/21 07:18:24;;;;;;;5.85;3.38;;;;;;;;;;7377498;19;19999;-70
2023/07/21 07:20:55;;;;;;;7.25;3.90;;;;;;;;;;7376722;19;20006;-69
2023/07/21 07:23:20;;;;;;;;;;;;;;;;;;7379391;19;20374;-69
2023/07/21 07:25:51;;;;;;;6.78;3.58;;;;;;;;;;7396802;19;19914;-69
2023/07/21 07:28:18;;;;;;;10.32;3.42;;;;;;;;;;7370067;19;20039;-69
2023/07/21 07:30:44;;;;;;;7.72;3.42;;;;;;;;;;7369860;19;20019;-69
2023/07/21 07:33:10;;;;;;;6.97;3.20;;;;;;;;;;7371830;19;20027;-69
2023/07/21 07:35:35;;;;;;;6.10;3.03;;;;;;;;;;7372590;19;20518;-69
2023/07/21 07:38:00;;;;;;;5.50;3.13;;;;;;;;;;7381065;19;19999;-69
2023/07/21 07:40:26;;;;;;;6.10;3.25;;;;;;;;;;7401557;19;20457;-69
2023/07/21 07:42:51;;;;;;;5.70;2.88;;;;;;;;;;7373944;19;20002;-69
2023/07/21 07:45:17;;;;;;;5.20;2.90;;;;;;;;;;7371150;19;20330;-69
2023/07/21 07:47:44;;;;;;;6.03;2.83;;;;;;;;;;7361594;19;20047;-69
2023/07/21 07:50:10;;;;;;;5.28;2.83;;;;;;;;;;7372167;19;20037;-69
2023/07/21 07:52:36;;;;;;;5.38;3.10;;;;;;;;;;7392862;19;20495;-69
2023/07/21 07:55:02;;;;;;;4.72;2.75;;;;;;;;;;7369680;19;20010;-70
2023/07/21 07:57:27;;;;;;;5.82;2.78;;;;;;;;;;7369226;19;20489;-69
2023/07/21 07:59:53;;;;;;;5.38;2.97;;;;;;;;;;7369822;19;20325;-69
2023/07/21 08:02:19;;;;;;;7.10;3.00;;;;;;;;;;7369460;19;20062;-69
2023/07/21 08:04:44;;;;;;;4.05;2.60;;;;;;;;;;7393967;19;20062;-69
2023/07/21 08:07:09;;;;;;;5.95;2.80;;;;;;;;;;7369979;19;20040;-68
2023/07/21 08:09:34;;;;;;;7.15;3.00;;;;;;;;;;7368830;19;20078;-69
2023/07/21 08:12:00;;;;;;;4.32;2.72;;;;;;;;;;7369206;19;20122;-70
2023/07/21 08:14:25;;;;;;;4.72;2.70;;;;;;;;;;7369723;19;20009;-69
2023/07/21 08:16:50;;;;;;;5.40;2.85;;;;;;;;;;7392976;19;20007;-69
2023/07/21 08:19:16;;;;;;;6.25;2.78;;;;;;;;;;7370148;19;20003;-69
2023/07/21 08:21:41;;;;;;;4.97;2.85;;;;;;;;;;7371773;19;20007;-69
2023/07/21 08:24:06;;;;;;;4.97;2.78;;;;;;;;;;7370602;19;20006;-69
2023/07/21 08:26:32;;;;;;;5.18;2.60;;;;;;;;;;7369650;19;20374;-69
2023/07/21 08:28:57;;;;;;;4.13;2.45;;;;;;;;;;7369522;19;20009;-69
2023/07/21 08:31:22;;;;;;;7.05;2.70;;;;;;;;;;7389576;19;19998;-70
2023/07/21 08:33:49;;;;;;;3.97;2.45;;;;;;;;;;7369540;19;20028;-70
2023/07/21 08:36:14;;;;;;;3.55;2.30;;;;;;;;;;7367813;19;20733;-70
2023/07/21 08:38:40;;;;;;;4.78;2.50;;;;;;;;;;7369105;19;20044;-70
2023/07/21 08:41:07;;;;;;;5.15;2.50;;;;;;;;;;7369247;19;20022;-70
2023/07/21 08:43:33;;;;;;;4.18;2.40;;;;;;;;;;7391437;19;20006;-70
2023/07/21 08:46:00;;;;;;;4.95;2.58;;;;;;;;;;7369228;19;20023;-70
2023/07/21 08:48:26;;;;;;;7.20;2.83;;;;;;;;;;7369077;19;20014;-70
2023/07/21 08:50:55;;;;;;;6.75;3.08;;;;;;;;;;7369237;19;20635;-70
2023/07/21 08:53:22;;;;;;;8.10;2.90;;;;;;;;;;7369045;19;20048;-70
2023/07/21 08:55:47;;;;;;;10.50;3.13;;;;;;;;;;7389677;19;20502;-70
2023/07/21 08:58:14;;;;;;;7.88;3.10;;;;;;;;;;7365575;19;20026;-70
2023/07/21 09:00:39;;;;;;;11.27;3.22;;;;;;;;;;7366638;19;20051;-70
2023/07/21 09:03:04;;;;;;;11.20;3.00;;;;;;;;;;7368740;19;20014;-70
2023/07/21 09:05:30;;;;;;;5.80;3.00;;;;;;;;;;7369107;19;20342;-70
2023/07/21 09:07:55;;;;;;;14.07;3.15;;;;;;;;;;7368069;19;20011;-70
2023/07/21 09:10:31;;;;;;;8.68;2.75;;;;;;;;;;7388278;19;20002;-70
2023/07/21 09:12:57;;;;;;;7.20;2.50;;;;;;;;;;7368905;19;20030;-70
2023/07/21 09:15:22;;;;;;;5.82;2.65;;;;;;;;;;7367977;19;20094;-70
2023/07/21 09:17:48;;;;;;;10.10;3.05;;;;;;;;;;7368909;19;20014;-70
2023/07/21 09:20:13;;;;;;;6.07;2.80;;;;;;;;;;7367114;19;19999;-70
2023/07/21 09:22:39;;;;;;;9.00;3.05;;;;;;;;;;7389799;19;20035;-69
2023/07/21 09:25:07;;;;;;;6.72;2.47;;;;;;;;;;7367593;19;20082;-69
2023/07/21 09:27:35;;;;;;;6.47;2.60;;;;;;;;;;7366486;19;20010;-68
2023/07/21 09:30:02;;;;;;;14.07;3.13;;;;;;;;;;7367103;19;20006;-69
2023/07/21 09:32:27;;;;;;;8.05;2.88;;;;;;;;;;7367471;19;20026;-68
2023/07/21 09:35:04;;;;;;;9.50;2.80;;;;;;;;;;7387641;19;20030;-69
2023/07/21 09:37:31;;;;;;;7.00;2.75;;;;;;;;;;7393238;19;20502;-69
2023/07/21 09:39:59;;;;;;;7.13;2.85;;;;;;;;;;7369524;19;20017;-69
2023/07/21 09:42:26;;;;;;;8.55;2.90;;;;;;;;;;7366907;19;20003;-69
2023/07/21 09:44:52;;;;;;;7.22;2.88;;;;;;;;;;7367605;19;20049;-69
2023/07/21 09:47:19;;;;;;;6.47;2.95;;;;;;;;;;7366550;19;20038;-70
2023/07/21 09:49:45;;;;;;;6.20;2.80;;;;;;;;;;7387586;19;20009;-70
2023/07/21 09:52:15;;;;;;;6.10;2.50;;;;;;;;;;7365830;19;20010;-69
2023/07/21 09:54:44;;;;;;;7.95;2.75;;;;;;;;;;7366954;19;20014;-69
2023/07/21 09:57:12;;;;;;;4.55;2.78;;;;;;;;;;7366505;19;20093;-69
2023/07/21 09:59:40;;;;;;;9.23;3.00;;;;;;;;;;7366206;19;20468;-69
2023/07/21 10:02:08;;;;;;;5.05;2.50;;;;;;;;;;7366350;19;20003;-69
2023/07/21 10:04:34;;;;;;;7.07;2.22;;;;;;;;;;7386968;19;20026;-70
2023/07/21 10:07:03;;;;;;;6.20;2.97;;;;;;;;;;7363714;19;20097;-70
2023/07/21 10:09:30;;;;;;;4.57;2.33;;;;;;;;;;7360807;19;20017;-69
2023/07/21 10:12:11;;;;;;;5.32;2.00;;;;;;;;;;7362425;19;20006;-69
2023/07/21 10:14:38;;;;;;;4.90;2.28;;;;;;;;;;7363221;19;20126;-69
2023/07/21 10:17:06;;;;;;;3.83;2.55;;;;;;;;;;7362568;19;20006;-70
2023/07/21 10:19:42;;;;;;;5.97;2.40;;;;;;;;;;7384334;19;20010;-70
2023/07/21 10:22:14;;;;;;;3.97;2.10;;;;;;;;;;7364778;19;20014;-69
2023/07/21 10:24:50;;;;;;;6.95;2.20;;;;;;;;;;7366456;19;20437;-69
2023/07/21 10:27:21;;;;;;;4.35;1.90;;;;;;;;;;7365896;19;20022;-70
2023/07/21 10:30:20;;;;;;;4.90;1.90;;;;;;;;;;7366308;19;20054;-70
2023/07/21 10:32:45;;;;;;;6.35;2.33;;;;;;;;;;7366766;19;20023;-70
2023/07/21 10:35:30;;;;;;;3.95;2.00;;;;;;;;;;7364446;19;20002;-69
2023/07/21 10:38:13;;;;;;;8.73;2.10;;;;;;;;;;7363613;19;20002;-69
2023/07/21 10:40:43;;;;;;;5.43;2.10;;;;;;;;;;7386310;19;20016;-70
2023/07/21 10:43:09;;;;;;;4.75;2.10;;;;;;;;;;7364153;19;20014;-69
2023/07/21 10:45:34;;;;;;;7.22;2.33;;;;;;;;;;7367315;19;20006;-68
2023/07/21 10:48:16;;;;;;;6.25;2.10;;;;;;;;;;7368136;19;20074;-68
2023/07/21 10:50:48;;;;;;;6.30;2.25;;;;;;;;;;7366085;19;20559;-69
2023/07/21 10:53:14;;;;;;;4.15;1.90;;;;;;;;;;7366002;19;20008;-69
2023/07/21 10:55:40;;;;;;;3.83;2.15;;;;;;;;;;7386881;19;20036;-69
2023/07/21 10:58:05;;;;;;;4.00;2.28;;;;;;;;;;7363116;19;20063;-69
2023/07/21 11:00:46;;;;;;;5.75;1.98;;;;;;;;;;7362702;19;20808;-69
2023/07/21 11:03:12;;;;;;;5.20;2.25;;;;;;;;;;7365764;19;20058;-69
2023/07/21 11:05:37;;;;;;;2.72;1.90;;;;;;;;;;7366034;19;20349;-69
2023/07/21 11:08:03;;;;;;;4.72;2.50;;;;;;;;;;7365453;19;20479;-69
2023/07/21 11:10:33;;;;;;;5.63;2.20;;;;;;;;;;7386382;19;20006;-69
2023/07/21 11:12:59;;;;;;;5.68;2.42;;;;;;;;;;7364572;19;20013;-69
2023/07/21 11:15:24;;;;;;;5.57;2.38;;;;;;;;;;7364926;19;20011;-69
2023/07/21 11:17:56;;;;;;;5.05;2.22;;;;;;;;;;7365028;19;20031;-70
2023/07/21 11:20:23;;;;;;;3.92;2.17;;;;;;;;;;7364737;19;20015;-69
2023/07/21 11:22:49;;;;;;;4.28;2.13;;;;;;;;;;7394883;19;20016;-70
2023/07/21 11:25:14;;;;;;;7.13;2.10;;;;;;;;;;7372278;19;20340;-70
2023/07/21 11:27:43;;;;;;;5.40;2.30;;;;;;;;;;7373737;19;20637;-69
2023/07/21 11:30:10;;;;;;;4.10;1.98;;;;;;;;;;7374787;19;20368;-69
2023/07/21 11:32:35;;;;;;;5.03;2.17;;;;;;;;;;7373889;19;20483;-68
2023/07/21 11:35:03;;;;;;;4.73;2.20;;;;;;;;;;7375582;19;20011;-68
2023/07/21 11:37:39;;;;;;;2.80;1.90;;;;;;;;;;7400778;19;20272;-68
2023/07/21 11:40:13;;;;;;;5.10;2.20;;;;;;;;;;7379169;19;20009;-69
2023/07/21 11:42:46;;;;;;;6.15;2.05;;;;;;;;;;7377367;19;20543;-69
2023/07/21 11:45:34;;;;;;;7.75;2.20;;;;;;;;;;7371784;19;20074;-69
2023/07/21 11:48:03;;;;;;;7.55;2.60;;;;;;;;;;7369610;19;20010;-69
2023/07/21 11:50:29;;;;;;;2.67;2.00;;;;;;;;;;7369957;19;20014;-69
2023/07/21 11:52:58;;;;;;;9.68;2.70;;;;;;;;;;7374476;19;20010;-68
2023/07/21 11:55:23;;;;;;;5.97;2.35;;;;;;;;;;7391462;19;20017;-70
2023/07/21 11:57:48;;;;;;;3.75;2.10;;;;;;;;;;7368198;19;20002;-70
2023/07/21 12:00:14;;;;;;;4.32;1.92;;;;;;;;;;7368372;19;20007;-70
2023/07/21 12:02:40;;;;;;;5.97;2.10;;;;;;;;;;7370866;19;20007;-69
2023/07/21 12:05:05;;;;;;;7.65;2.15;;;;;;;;;;7370746;19;20165;-69
2023/07/21 12:07:31;;;;;;;3.40;2.00;;;;;;;;;;7390881;19;20009;-69
2023/07/21 12:09:58;;;;;;;5.47;2.10;;;;;;;;;;7369869;19;20010;-70
2023/07/21 12:12:23;;;;;;;5.20;2.10;;;;;;;;;;7369031;19;20006;-70
2023/07/21 12:14:49;;;;;;;7.38;2.15;;;;;;;;;;7370239;19;20053;-70
2023/07/21 12:17:14;;;;;;;4.13;2.00;;;;;;;;;;7369717;19;20011;-70
2023/07/21 12:19:40;;;;;;;3.50;1.85;;;;;;;;;;7393100;19;20010;-70
2023/07/21 12:22:06;;;;;;;6.32;2.00;;;;;;;;;;7372572;19;20017;-70
2023/07/21 12:24:32;;;;;;;4.70;2.20;;;;;;;;;;7373117;19;20608;-69
2023/07/21 12:26:57;;;;;;;4.68;1.88;;;;;;;;;;7368770;19;20017;-69
2023/07/21 12:29:23;;;;;;;8.07;2.30;;;;;;;;;;7368057;19;20006;-69
2023/07/21 12:31:49;;;;;;;6.00;2.08;;;;;;;;;;7389375;19;20031;-69
2023/07/21 12:34:14;;;;;;;4.85;2.00;;;;;;;;;;7367492;19;20480;-69
2023/07/21 12:36:40;;;;;;;7.13;2.10;;;;;;;;;;7366177;19;20468;-69
2023/07/21 12:39:09;;;;;;;2.95;1.70;;;;;;;;;;7370109;19;20011;-69
2023/07/21 12:41:35;;;;;;;3.80;2.10;;;;;;;;;;7368252;19;20536;-69
2023/07/21 12:44:01;;;;;;;4.03;1.70;;;;;;;;;;7369746;19;20074;-69
2023/07/21 12:46:26;;;;;;;4.68;2.03;;;;;;;;;;7391318;19;19994;-69
2023/07/21 12:48:51;;;;;;;4.95;1.90;;;;;;;;;;7368909;19;20010;-69
2023/07/21 12:51:17;;;;;;;2.50;1.60;;;;;;;;;;7368003;19;20087;-69
2023/07/21 12:53:42;;;;;;;5.18;2.05;;;;;;;;;;7369026;19;20002;-69
2023/07/21 12:56:08;;;;;;;9.77;1.90;;;;;;;;;;7367976;19;20012;-69
2023/07/21 12:58:33;;;;;;;5.13;1.70;;;;;;;;;;7388827;19;20003;-69
2023/07/21 13:00:58;;;;;;;3.13;1.70;;;;;;;;;;7366795;19;20002;-69
2023/07/21 13:03:24;;;;;;;2.30;1.70;;;;;;;;;;7368504;19;20035;-69
2023/07/21 13:05:49;;;;;;;4.28;1.52;;;;;;;;;;7367949;19;20070;-69
2023/07/21 13:08:14;;;;;;;3.47;1.73;;;;;;;;;;7367489;19;20031;-69
2023/07/21 13:10:40;;;;;;;3.75;1.85;;;;;;;;;;7389208;19;19994;-69
2023/07/21 13:13:05;;;;;;;4.22;1.83;;;;;;;;;;7361974;19;20022;-69
2023/07/21 13:15:31;;;;;;;2.78;1.90;;;;;;;;;;7367115;19;20010;-69
2023/07/21 13:17:57;;;;;;;4.75;2.13;;;;;;;;;;7366763;19;20098;-69
2023/07/21 13:20:22;;;;;;;4.43;1.77;;;;;;;;;;7367427;19;20010;-70
2023/07/21 13:22:48;;;;;;;5.80;2.10;;;;;;;;;;7390615;19;20711;-70
2023/07/21 13:25:13;;;;;;;3.15;1.80;;;;;;;;;;7367854;19;20006;-71
2023/07/21 13:27:38;;;;;;;4.72;1.88;;;;;;;;;;7366756;19;20023;-72
2023/07/21 13:30:05;;;;;;;3.45;1.90;;;;;;;;;;7370164;19;20055;-72
2023/07/21 13:32:31;;;;;;;4.75;2.00;;;;;;;;;;7366977;19;20066;-71
2023/07/21 13:34:57;;;;;;;5.18;2.00;;;;;;;;;;7364943;19;20010;-71
2023/07/21 13:37:26;;;;;;;3.33;1.90;;;;;;;;;;7387511;19;20026;-71
2023/07/21 13:39:52;;;;;;;2.90;1.83;;;;;;;;;;7367083;19;20098;-71
2023/07/21 13:42:17;;;;;;;5.38;1.73;;;;;;;;;;7366260;19;20027;-70
2023/07/21 13:44:42;;;;;;;3.88;1.77;;;;;;;;;;7367509;19;20002;-70
2023/07/21 13:47:08;;;;;;;5.28;1.80;;;;;;;;;;7366267;19;20006;-70
2023/07/21 13:49:33;;;;;;;3.60;1.92;;;;;;;;;;7388516;19;20007;-70
2023/07/21 13:51:59;;;;;;;2.25;1.50;;;;;;;;;;7365221;19;20027;-71
2023/07/21 13:54:24;;;;;;;2.88;1.63;;;;;;;;;;7368148;19;20010;-71
2023/07/21 13:56:50;;;;;;;3.60;1.65;;;;;;;;;;7368713;19;20015;-70
2023/07/21 13:59:15;;;;;;;3.63;1.73;;;;;;;;;;7369402;19;20009;-70
2023/07/21 14:01:43;;;;;;;2.72;1.80;;;;;;;;;;7387955;19;19998;-70
2023/07/21 14:04:09;;;;;;;4.18;1.80;;;;;;;;;;7367648;19;20490;-70
2023/07/21 14:06:34;;;;;;;2.80;1.70;;;;;;;;;;7365227;19;20091;-70
2023/07/21 14:08:59;;;;;;;2.58;1.60;;;;;;;;;;7366103;19;20018;-70
2023/07/21 14:11:25;;;;;;;4.47;1.83;;;;;;;;;;7364166;19;20014;-70
2023/07/21 14:13:52;;;;;;;5.00;1.80;;;;;;;;;;7386974;19;20011;-70
2023/07/21 14:16:17;;;;;;;3.53;1.60;;;;;;;;;;7364657;19;20011;-70
2023/07/21 14:18:43;;;;;;;2.28;1.50;;;;;;;;;;7365336;19;20119;-70
2023/07/21 14:21:08;;;;;;;4.07;1.65;;;;;;;;;;7365378;19;20013;-70
2023/07/21 14:23:33;;;;;;;3.65;1.60;;;;;;;;;;7365845;19;20009;-70
2023/07/21 14:25:59;;;;;;;2.97;1.60;;;;;;;;;;7366081;19;20014;-70
2023/07/21 14:28:25;;;;;;;5.10;1.70;;;;;;;;;;7383329;19;20036;-71
2023/07/21 14:30:50;;;;;;;2.22;1.42;;;;;;;;;;7365344;19;20011;-70
2023/07/21 14:33:15;;;;;;;2.85;1.52;;;;;;;;;;7366343;19;20011;-70
2023/07/21 14:35:41;;;;;;;3.97;1.70;;;;;;;;;;7365077;19;20035;-71
2023/07/21 14:38:06;;;;;;;2.78;1.63;;;;;;;;;;7365098;19;20031;-71
2023/07/21 14:40:31;;;;;;;2.92;1.85;;;;;;;;;;7387815;19;20017;-70